Time;durP1;ratioP1;P1;durP2;ratioP2;P2;SDS_P1;SDS_P2;PMS_P1;PMS_P2;Temp;Humidity;BMP_temperature;BMP_pressure;BME280_temperature;BME280_humidity;BME280_pressure;Samples;Min_cycle;Max_cycle;Signal;HPM_P1;HPM_P2
2022/04/12 00:00:54;;;;;;;15.30;3.37;;;2.70;99.90;;;;;;6214068;28;20557;-76
2022/04/12 00:04:01;;;;;;;16.80;2.90;;;2.60;99.90;;;;;;6212650;28;20297;-76
2022/04/12 00:07:06;;;;;;;6.00;1.80;;;2.60;99.90;;;;;;6213429;28;20548;-77
2022/04/12 00:10:13;;;;;;;20.17;3.30;;;2.70;99.80;;;;;;6232098;28;20291;-76
2022/04/12 00:13:19;;;;;;;12.27;2.77;;;2.70;99.90;;;;;;6237377;28;20303;-76
2022/04/12 00:16:24;;;;;;;12.53;2.17;;;2.60;99.90;;;;;;6237752;28;20268;-76
2022/04/12 00:19:29;;;;;;;4.27;2.50;;;2.50;99.90;;;;;;6237203;28;20303;-76
2022/04/12 00:22:34;;;;;;;6.33;2.70;;;2.70;99.90;;;;;;6236671;28;20300;-77
2022/04/12 00:25:40;;;;;;;14.33;3.10;;;2.60;99.90;;;;;;6237012;28;20275;-76
2022/04/12 00:28:46;;;;;;;13.33;2.93;;;2.50;99.90;;;;;;6237006;28;20298;-76
2022/04/12 00:31:51;;;;;;;21.30;3.17;;;2.50;99.90;;;;;;6236901;28;20296;-76
2022/04/12 00:34:57;;;;;;;7.67;2.57;;;2.50;99.90;;;;;;6236827;28;20484;-76
2022/04/12 00:38:13;;;;;;;28.20;3.37;;;2.40;99.90;;;;;;6236270;28;20304;-76
2022/04/12 00:41:18;;;;;;;15.80;3.07;;;2.40;99.90;;;;;;6237253;28;20457;-76
2022/04/12 00:44:25;;;;;;;15.73;3.30;;;2.40;99.90;;;;;;6236222;28;20603;-76
2022/04/12 00:47:30;;;;;;;21.60;3.00;;;2.30;99.90;;;;;;6236435;28;20300;-76
2022/04/12 00:50:35;;;;;;;10.10;2.57;;;2.30;99.90;;;;;;6237198;28;20281;-76
2022/04/12 00:53:40;;;;;;;13.47;2.47;;;2.30;99.90;;;;;;6236009;28;20304;-76
2022/04/12 00:56:46;;;;;;;8.67;2.20;;;2.40;99.90;;;;;;6236725;28;20578;-76
2022/04/12 00:59:54;;;;;;;7.53;2.20;;;2.30;99.90;;;;;;6236364;28;20293;-76
2022/04/12 01:03:00;;;;;;;14.30;2.93;;;2.40;99.90;;;;;;6236411;28;20288;-76
2022/04/12 01:06:06;;;;;;;4.43;1.90;;;2.20;99.90;;;;;;6236720;28;20292;-77
2022/04/12 01:09:12;;;;;;;2.03;1.90;;;2.10;99.90;;;;;;6235612;28;20300;-76
2022/04/12 01:12:21;;;;;;;2.13;1.90;;;2.10;99.90;;;;;;6212852;28;20277;-76
2022/04/12 01:15:28;;;;;;;8.40;1.73;;;2.20;99.90;;;;;;6212547;28;20268;-76
2022/04/12 01:18:34;;;;;;;5.00;2.40;;;2.30;99.90;;;;;;6211960;28;20319;-76
2022/04/12 01:21:53;;;;;;;6.97;2.13;;;2.30;99.90;;;;;;6212579;28;20272;-76
2022/04/12 01:25:00;;;;;;;5.97;1.83;;;2.30;99.90;;;;;;6212119;28;20301;-76
2022/04/12 01:28:07;;;;;;;5.63;1.83;;;2.30;99.90;;;;;;6212037;28;20297;-77
2022/04/12 01:31:12;;;;;;;4.10;2.00;;;2.30;99.90;;;;;;6212498;28;20277;-76
2022/04/12 01:34:19;;;;;;;6.67;2.37;;;2.30;99.90;;;;;;6211817;28;20300;-76
2022/04/12 01:37:25;;;;;;;9.00;2.27;;;2.30;99.90;;;;;;6211385;28;20296;-76
2022/04/12 01:40:32;;;;;;;8.30;1.60;;;2.30;99.90;;;;;;6211986;28;20273;-76
2022/04/12 01:43:37;;;;;;;2.17;1.57;;;2.30;99.90;;;;;;6211415;28;20300;-77
2022/04/12 01:46:43;;;;;;;3.10;1.60;;;2.30;99.90;;;;;;6212104;28;20424;-77
2022/04/12 01:49:48;;;;;;;6.43;1.43;;;2.30;99.90;;;;;;6211554;28;20304;-76
2022/04/12 01:52:53;;;;;;;2.70;1.43;;;2.30;99.90;;;;;;6211530;28;20297;-76
2022/04/12 01:55:59;;;;;;;8.13;1.53;;;2.30;99.90;;;;;;6211892;28;20276;-76
2022/04/12 01:59:05;;;;;;;2.43;1.50;;;2.30;99.90;;;;;;6211588;28;20453;-76
2022/04/12 02:02:12;;;;;;;1.63;1.57;;;2.30;99.90;;;;;;6211653;28;20430;-76
2022/04/12 02:05:17;;;;;;;2.70;1.47;;;2.40;99.90;;;;;;6226809;28;20381;-76
2022/04/12 02:08:23;;;;;;;1.97;1.80;;;2.40;99.90;;;;;;6215397;28;20311;-76
2022/04/12 02:11:30;;;;;;;4.13;1.87;;;2.40;99.90;;;;;;6235731;28;20265;-76
2022/04/12 02:14:35;;;;;;;10.33;4.60;;;2.50;99.90;;;;;;6235607;28;20303;-76
2022/04/12 02:17:41;;;;;;;7.23;4.27;;;2.50;99.90;;;;;;6235501;28;20295;-76
2022/04/12 02:20:46;;;;;;;10.70;5.47;;;2.50;99.90;;;;;;6235372;28;20273;-77
2022/04/12 02:23:51;;;;;;;13.27;5.63;;;2.50;99.90;;;;;;6235079;28;20304;-75
2022/04/12 02:26:58;;;;;;;13.07;5.63;;;2.50;99.90;;;;;;6239195;28;20272;-76
2022/04/12 02:30:04;;;;;;;10.53;4.77;;;2.50;99.90;;;;;;6222184;28;20279;-76
2022/04/12 02:33:12;;;;;;;7.67;4.37;;;2.50;99.90;;;;;;6239745;28;20458;-76
2022/04/12 02:36:18;;;;;;;4.93;3.77;;;2.50;99.90;;;;;;6240247;28;20289;-76
2022/04/12 02:39:23;;;;;;;7.13;2.93;;;2.50;99.90;;;;;;6240140;28;20295;-76
2022/04/12 02:42:29;;;;;;;2.83;2.57;;;2.50;99.90;;;;;;6239008;28;20292;-76
2022/04/12 02:45:35;;;;;;;4.47;2.20;;;2.50;99.90;;;;;;6239198;28;20308;-76
2022/04/12 02:48:40;;;;;;;3.37;2.03;;;2.60;99.90;;;;;;6239065;28;20301;-76
2022/04/12 02:51:45;;;;;;;2.10;1.90;;;2.50;99.90;;;;;;6239750;28;20305;-76
2022/04/12 02:54:51;;;;;;;2.30;1.97;;;2.50;99.90;;;;;;6238765;28;20304;-76
2022/04/12 02:57:57;;;;;;;2.53;1.50;;;2.60;99.90;;;;;;6239240;28;20292;-76
2022/04/12 03:01:03;;;;;;;5.97;1.60;;;2.50;99.90;;;;;;6231530;28;20280;-75
2022/04/12 03:04:08;;;;;;;1.67;1.57;;;2.50;99.90;;;;;;6236482;28;20296;-76
2022/04/12 03:07:14;;;;;;;6.53;1.67;;;2.50;99.90;;;;;;6238764;28;20264;-76
2022/04/12 03:10:19;;;;;;;2.90;1.50;;;2.50;99.90;;;;;;6233576;28;20475;-75
2022/04/12 03:13:27;;;;;;;1.63;1.33;;;2.50;99.90;;;;;;6214524;28;20487;-75
2022/04/12 03:16:32;;;;;;;1.37;1.27;;;2.50;99.90;;;;;;6213860;28;20276;-76
2022/04/12 03:19:37;;;;;;;1.33;1.33;;;2.60;99.90;;;;;;6220975;28;20292;-76
2022/04/12 03:22:43;;;;;;;6.43;1.43;;;2.50;99.90;;;;;;6238456;28;20303;-77
2022/04/12 03:25:50;;;;;;;1.60;1.50;;;2.50;99.90;;;;;;6239182;28;20297;-75
2022/04/12 03:28:56;;;;;;;2.03;1.47;;;2.50;99.90;;;;;;6238323;28;20300;-77
2022/04/12 03:32:02;;;;;;;1.50;1.40;;;2.50;99.90;;;;;;6238824;28;20283;-76
2022/04/12 03:35:08;;;;;;;2.17;1.43;;;2.40;99.90;;;;;;6238061;28;20291;-76
2022/04/12 03:38:18;;;;;;;1.20;1.20;;;2.40;99.90;;;;;;6196784;28;20300;-77
2022/04/12 03:41:23;;;;;;;1.20;1.20;;;2.30;99.90;;;;;;6214412;28;20462;-76
2022/04/12 03:44:30;;;;;;;1.70;1.60;;;2.30;99.90;;;;;;6213553;28;20614;-78
2022/04/12 03:47:35;;;;;;;1.50;1.40;;;2.30;99.90;;;;;;6213430;28;20305;-78
2022/04/12 03:50:41;;;;;;;1.53;1.30;;;2.20;99.90;;;;;;6214178;28;20281;-75
2022/04/12 03:53:47;;;;;;;3.53;1.63;;;2.20;99.90;;;;;;6213504;28;20300;-77
2022/04/12 03:56:53;;;;;;;1.37;1.30;;;2.20;99.90;;;;;;6214168;28;20284;-77
2022/04/12 04:00:00;;;;;;;2.33;1.37;;;2.20;99.90;;;;;;6213467;28;20318;-76
2022/04/12 04:03:06;;;;;;;2.90;1.47;;;2.20;99.90;;;;;;6213338;28;20305;-75
2022/04/12 04:06:13;;;;;;;4.83;1.60;;;2.10;99.90;;;;;;6213983;28;20297;-76
2022/04/12 04:09:18;;;;;;;2.23;1.50;;;2.20;99.90;;;;;;6212937;28;20314;-75
2022/04/12 04:12:23;;;;;;;2.47;1.30;;;2.10;99.90;;;;;;6213006;28;20308;-76
2022/04/12 04:15:31;;;;;;;1.20;1.20;;;2.10;99.90;;;;;;6213218;28;20272;-76
2022/04/12 04:18:37;;;;;;;1.57;1.43;;;2.10;99.90;;;;;;6212707;28;20305;-75
2022/04/12 04:21:42;;;;;;;1.73;1.40;;;2.20;99.90;;;;;;6213113;28;20281;-76
2022/04/12 04:24:47;;;;;;;2.87;1.40;;;2.20;99.90;;;;;;6212688;28;20297;-76
2022/04/12 04:27:53;;;;;;;4.87;1.60;;;2.20;99.90;;;;;;6212501;28;20603;-76
2022/04/12 04:30:59;;;;;;;5.40;1.70;;;2.20;99.90;;;;;;6212831;28;20293;-75
2022/04/12 04:34:04;;;;;;;3.13;1.97;;;2.20;99.90;;;;;;6212511;28;20289;-76
2022/04/12 04:37:10;;;;;;;5.07;1.50;;;2.20;99.90;;;;;;6211433;28;20279;-78
2022/04/12 04:40:17;;;;;;;2.73;1.53;;;2.30;99.90;;;;;;6212675;28;20273;-76
2022/04/12 04:43:22;;;;;;;3.97;1.60;;;2.30;99.90;;;;;;6212519;28;20298;-76
2022/04/12 04:46:29;;;;;;;4.57;1.63;;;2.30;99.90;;;;;;6212907;28;20296;-76
2022/04/12 04:49:34;;;;;;;2.70;1.60;;;2.30;99.90;;;;;;6211881;28;20302;-75
2022/04/12 04:52:39;;;;;;;6.43;1.60;;;2.40;99.90;;;;;;6212200;28;20502;-76
2022/04/12 04:55:46;;;;;;;6.53;1.60;;;2.40;99.90;;;;;;6212721;28;20283;-76
2022/04/12 04:58:51;;;;;;;1.60;1.30;;;2.40;99.90;;;;;;6212043;28;20588;-76
2022/04/12 05:01:58;;;;;;;1.77;1.60;;;2.50;99.90;;;;;;6211949;28;20272;-75
2022/04/12 05:05:04;;;;;;;4.80;1.60;;;2.50;99.90;;;;;;6201024;28;20288;-78
2022/04/12 05:08:13;;;;;;;1.57;1.53;;;2.60;99.90;;;;;;6211777;28;20313;-76
2022/04/12 05:11:19;;;;;;;1.80;1.53;;;2.60;99.90;;;;;;6212146;28;20265;-76
2022/04/12 05:14:24;;;;;;;1.33;1.23;;;2.60;99.90;;;;;;6212266;28;20301;-77
2022/04/12 05:17:31;;;;;;;2.80;1.30;;;2.60;99.90;;;;;;6212165;28;20300;-77
2022/04/12 05:20:36;;;;;;;1.50;1.40;;;2.60;99.90;;;;;;6211976;28;20307;-77
2022/04/12 05:23:48;;;;;;;2.63;1.47;;;2.70;99.90;;;;;;6211924;28;20302;-76
2022/04/12 05:26:53;;;;;;;5.63;1.60;;;2.70;99.90;;;;;;6212104;28;20301;-77
2022/04/12 05:29:59;;;;;;;1.90;1.40;;;2.70;99.90;;;;;;6211970;28;20301;-77
2022/04/12 05:33:05;;;;;;;1.80;1.40;;;2.80;99.90;;;;;;6211695;28;20301;-77
2022/04/12 05:36:11;;;;;;;9.87;1.60;;;2.90;99.90;;;;;;6211995;28;20277;-77
2022/04/12 05:39:17;;;;;;;4.47;1.57;;;2.90;99.90;;;;;;6211908;28;20302;-77
2022/04/12 05:42:23;;;;;;;2.03;1.40;;;3.00;99.90;;;;;;6211406;28;20273;-77
2022/04/12 05:45:28;;;;;;;4.47;1.47;;;2.90;99.90;;;;;;6212298;28;20275;-77
2022/04/12 05:48:34;;;;;;;3.50;1.40;;;3.00;99.90;;;;;;6211559;28;20301;-77
2022/04/12 05:51:39;;;;;;;6.60;1.80;;;3.00;99.90;;;;;;6211648;28;20276;-76
2022/04/12 05:54:45;;;;;;;4.53;1.43;;;3.10;99.90;;;;;;6211164;28;20621;-76
2022/04/12 05:57:52;;;;;;;4.93;1.70;;;3.10;99.90;;;;;;6210977;28;20303;-76
2022/04/12 06:00:57;;;;;;;3.10;1.37;;;3.10;99.90;;;;;;6213947;28;20276;-76
2022/04/12 06:04:04;;;;;;;1.67;1.57;;;3.20;99.90;;;;;;6215778;28;20454;-76
2022/04/12 06:07:11;;;;;;;12.23;1.80;;;3.20;99.90;;;;;;6215487;28;20351;-77
2022/04/12 06:10:20;;;;;;;1.90;1.30;;;3.20;99.90;;;;;;6236400;28;20293;-76
2022/04/12 06:13:25;;;;;;;4.70;1.20;;;3.30;99.90;;;;;;6239755;28;20304;-76
2022/04/12 06:16:30;;;;;;;1.60;1.50;;;3.30;99.90;;;;;;6240529;28;20272;-76
2022/04/12 06:19:37;;;;;;;2.17;1.40;;;3.30;99.90;;;;;;6239433;28;20303;-76
2022/04/12 06:22:43;;;;;;;1.70;1.50;;;3.40;99.90;;;;;;6239677;28;20295;-76
2022/04/12 06:25:48;;;;;;;5.43;2.00;;;3.40;99.90;;;;;;6239844;28;20296;-76
2022/04/12 06:28:53;;;;;;;4.90;1.80;;;3.50;99.90;;;;;;6239978;28;20303;-77
2022/04/12 06:32:00;;;;;;;7.63;2.17;;;3.60;99.90;;;;;;6239741;28;20296;-76
2022/04/12 06:35:09;;;;;;;1.60;1.53;;;3.70;99.90;;;;;;6238847;28;20482;-77
2022/04/12 06:38:14;;;;;;;4.20;1.40;;;3.80;99.90;;;;;;6238376;28;20297;-78
2022/04/12 06:41:19;;;;;;;2.30;1.30;;;3.90;99.90;;;;;;6240027;28;20273;-77
2022/04/12 06:44:25;;;;;;;1.70;1.30;;;3.90;99.90;;;;;;6238278;28;20322;-77
2022/04/12 06:47:32;;;;;;;3.23;1.47;;;4.80;99.50;;;;;;6238996;28;20465;-77
2022/04/12 06:50:39;;;;;;;5.63;1.60;;;5.10;97.80;;;;;;6239586;28;20279;-77
2022/04/12 06:53:44;;;;;;;1.27;1.27;;;4.90;98.00;;;;;;6239046;28;20309;-79
2022/04/12 06:56:53;;;;;;;11.60;1.80;;;4.90;98.80;;;;;;6239090;28;20278;-76
2022/04/12 06:59:58;;;;;;;5.70;1.80;;;4.90;98.90;;;;;;6239336;28;20297;-75
2022/04/12 07:03:03;;;;;;;3.43;1.60;;;5.00;98.80;;;;;;6238732;28;20577;-75
2022/04/12 07:06:12;;;;;;;7.33;1.80;;;5.10;98.80;;;;;;6239270;28;20427;-75
2022/04/12 07:09:20;;;;;;;4.43;1.70;;;5.10;98.00;;;;;;6238863;28;20477;-76
2022/04/12 07:12:25;;;;;;;1.50;1.50;;;5.10;97.60;;;;;;6214456;28;20299;-75
2022/04/12 07:15:31;;;;;;;3.10;1.97;;;5.20;98.00;;;;;;6214591;28;20272;-75
2022/04/12 07:18:37;;;;;;;4.27;1.50;;;5.30;98.00;;;;;;6214212;28;20298;-73
2022/04/12 07:21:44;;;;;;;2.50;1.67;;;5.30;97.00;;;;;;6215104;28;20543;-75
2022/04/12 07:24:50;;;;;;;3.93;1.47;;;5.40;97.00;;;;;;6214363;28;20299;-76
2022/04/12 07:27:55;;;;;;;3.00;1.67;;;5.30;97.00;;;;;;6213582;28;20300;-75
2022/04/12 07:31:00;;;;;;;4.40;1.50;;;5.40;96.90;;;;;;6214182;28;20272;-75
2022/04/12 07:34:07;;;;;;;6.57;1.90;;;5.40;97.10;;;;;;6214469;28;20308;-75
2022/04/12 07:37:14;;;;;;;5.73;2.03;;;5.40;96.60;;;;;;6213899;28;20276;-75
2022/04/12 07:40:19;;;;;;;7.40;1.80;;;5.50;96.50;;;;;;6214523;28;20293;-76
2022/04/12 07:43:24;;;;;;;4.67;1.40;;;5.50;96.50;;;;;;6213656;28;20484;-75
2022/04/12 07:46:29;;;;;;;2.70;1.40;;;5.50;96.40;;;;;;6214369;28;20277;-76
2022/04/12 07:49:35;;;;;;;3.17;1.60;;;5.50;96.20;;;;;;6213568;28;20305;-74
2022/04/12 07:52:41;;;;;;;6.10;1.70;;;5.60;95.90;;;;;;6213588;28;20329;-74
2022/04/12 07:55:47;;;;;;;5.03;1.60;;;5.60;96.20;;;;;;6213783;28;20292;-76
2022/04/12 07:58:52;;;;;;;4.53;1.77;;;5.70;95.70;;;;;;6213662;28;20301;-75
2022/04/12 08:01:57;;;;;;;6.37;1.47;;;5.70;95.60;;;;;;6213360;28;20281;-75
2022/04/12 08:05:03;;;;;;;1.60;1.50;;;5.70;95.90;;;;;;6212738;28;20301;-75
2022/04/12 08:08:12;;;;;;;12.00;1.90;;;5.80;95.70;;;;;;6212707;28;20303;-75
2022/04/12 08:11:17;;;;;;;5.10;1.70;;;5.80;95.30;;;;;;6213299;28;20288;-77
2022/04/12 08:14:23;;;;;;;7.37;1.67;;;5.80;95.10;;;;;;6212988;28;20308;-76
2022/04/12 08:17:28;;;;;;;5.17;1.30;;;5.90;95.40;;;;;;6213194;28;20567;-75
2022/04/12 08:20:34;;;;;;;3.57;1.50;;;5.90;94.90;;;;;;6213704;28;20291;-77
2022/04/12 08:23:41;;;;;;;3.87;1.50;;;6.00;94.10;;;;;;6212335;28;20301;-77
2022/04/12 08:26:45;;;;;;;6.83;1.60;;;6.10;94.10;;;;;;6213321;28;20273;-77
2022/04/12 08:29:51;;;;;;;7.67;1.53;;;6.20;93.50;;;;;;6213095;28;20308;-77
2022/04/12 08:32:56;;;;;;;4.10;1.63;;;6.20;93.80;;;;;;6213004;28;20444;-77
2022/04/12 08:36:01;;;;;;;6.03;1.50;;;6.20;92.70;;;;;;6212073;28;20276;-77
2022/04/12 08:39:08;;;;;;;4.63;1.40;;;6.30;92.60;;;;;;6212665;28;20301;-77
2022/04/12 08:42:13;;;;;;;3.63;1.30;;;6.30;93.10;;;;;;6227076;28;20277;-77
2022/04/12 08:45:23;;;;;;;4.43;1.23;;;6.40;93.40;;;;;;6213256;28;20274;-77
2022/04/12 08:48:29;;;;;;;2.77;1.20;;;6.40;91.80;;;;;;6212487;28;20300;-77
2022/04/12 08:51:35;;;;;;;3.40;1.40;;;6.40;91.70;;;;;;6213028;28;20275;-77
2022/04/12 08:54:43;;;;;;;5.03;1.47;;;6.60;90.50;;;;;;6212393;28;20473;-77
2022/04/12 08:57:49;;;;;;;1.13;1.10;;;6.60;90.60;;;;;;6212027;28;20296;-78
2022/04/12 09:00:54;;;;;;;4.40;1.17;;;6.60;90.50;;;;;;6227585;28;20276;-77
2022/04/12 09:03:59;;;;;;;1.40;1.00;;;6.70;90.10;;;;;;6212406;28;20302;-77
2022/04/12 09:07:10;;;;;;;1.77;0.97;;;6.80;89.40;;;;;;6211656;28;20272;-78
2022/04/12 09:10:19;;;;;;;1.20;1.17;;;6.80;89.30;;;;;;6231162;28;20311;-77
2022/04/12 09:13:25;;;;;;;3.30;1.10;;;6.90;86.90;;;;;;6236484;28;20587;-76
2022/04/12 09:16:30;;;;;;;5.43;0.93;;;6.90;86.40;;;;;;6236781;28;20455;-77
2022/04/12 09:19:45;;;;;;;3.90;1.40;;;7.00;85.30;;;;;;6236031;28;20301;-76
2022/04/12 09:22:50;;;;;;;1.27;0.90;;;7.00;85.10;;;;;;6236066;28;20575;-77
2022/04/12 09:25:57;;;;;;;4.63;1.20;;;7.10;82.80;;;;;;6236580;28;20272;-77
2022/04/12 09:29:02;;;;;;;3.88;1.17;;;7.20;82.30;;;;;;6235921;28;20477;-76
2022/04/12 09:32:13;;;;;;;1.30;1.13;;;7.30;81.10;;;;;;6235999;28;20268;-76
2022/04/12 09:35:19;;;;;;;4.22;1.35;;;7.40;80.60;;;;;;6237464;28;20277;-76
2022/04/12 09:38:32;;;;;;;4.03;1.10;;;7.50;77.90;;;;;;6240302;28;20296;-76
2022/04/12 09:41:40;;;;;;;1.00;1.00;;;7.60;77.00;;;;;;6224006;28;20556;-76
2022/04/12 09:44:46;;;;;;;1.10;1.10;;;7.70;77.20;;;;;;6240843;28;20296;-76
2022/04/12 09:47:55;;;;;;;1.23;0.82;;;7.70;75.70;;;;;;6240715;28;20583;-77
2022/04/12 09:51:23;;;;;;;0.80;0.80;;;7.70;75.70;;;;;;6240968;28;20300;-80
2022/04/12 09:54:34;;;;;;;6.03;1.00;;;7.90;75.90;;;;;;6222849;28;20300;-76
2022/04/12 09:57:41;;;;;;;1.98;0.73;;;8.00;74.40;;;;;;6240199;28;20481;-76
2022/04/12 10:00:48;;;;;;;0.70;0.70;;;8.10;72.10;;;;;;6240636;28;20296;-79
2022/04/12 10:03:55;;;;;;;1.05;1.05;;;8.10;70.60;;;;;;6240009;28;20296;-76
2022/04/12 10:07:01;;;;;;;0.75;0.75;;;8.20;70.60;;;;;;6240269;28;20281;-77
2022/04/12 10:10:09;;;;;;;0.80;0.80;;;8.20;69.70;;;;;;6234077;28;20301;-79
2022/04/12 10:13:17;;;;;;;0.82;0.82;;;8.30;70.40;;;;;;6214611;28;20576;-74
2022/04/12 10:16:23;;;;;;;2.72;0.80;;;8.30;68.70;;;;;;6216203;28;20268;-76
2022/04/12 10:19:30;;;;;;;1.60;0.98;;;8.40;67.10;;;;;;6215738;28;20362;-76
2022/04/12 10:22:35;;;;;;;11.13;1.20;;;8.40;65.70;;;;;;6215853;28;20600;-76
2022/04/12 10:25:41;;;;;;;1.55;0.95;;;8.50;65.10;;;;;;6216301;28;20318;-75
2022/04/12 10:28:57;;;;;;;5.45;1.00;;;8.60;65.10;;;;;;6214444;28;20297;-78
2022/04/12 10:32:05;;;;;;;4.82;0.90;;;8.70;64.40;;;;;;6216078;28;20564;-71
2022/04/12 10:35:58;;;;;;;0.85;0.85;;;8.80;63.90;;;;;;6215169;28;20452;-71
2022/04/12 10:39:12;;;;;;;1.92;0.80;;;8.90;63.10;;;;;;6215486;28;20293;-74
2022/04/12 10:42:20;;;;;;;1.17;1.00;;;9.00;63.40;;;;;;6214740;28;20292;-75
2022/04/12 10:45:32;;;;;;;5.55;1.00;;;8.90;63.20;;;;;;6214908;28;20273;-77
2022/04/12 10:48:37;;;;;;;4.45;1.05;;;8.90;61.60;;;;;;6214850;28;20301;-77
2022/04/12 10:51:44;;;;;;;2.60;0.80;;;8.90;61.30;;;;;;6215379;28;20293;-76
2022/04/12 10:54:49;;;;;;;1.25;0.90;;;9.00;61.40;;;;;;6215387;28;20305;-76
2022/04/12 10:58:10;;;;;;;2.03;0.93;;;9.10;61.00;;;;;;6215240;28;20293;-75
2022/04/12 11:01:30;;;;;;;0.80;0.80;;;9.10;61.70;;;;;;6215193;28;20275;-75
2022/04/12 11:04:35;;;;;;;2.25;0.90;;;9.10;59.10;;;;;;6214826;28;20328;-77
2022/04/12 11:07:40;;;;;;;3.72;1.20;;;9.10;59.80;;;;;;6213443;28;20293;-77
2022/04/12 11:11:09;;;;;;;2.50;1.45;;;9.20;59.60;;;;;;6238279;28;20316;-76
2022/04/12 11:14:26;;;;;;;7.43;0.93;;;9.30;59.30;;;;;;6238322;28;20504;-76
2022/04/12 11:17:38;;;;;;;5.47;1.17;;;9.30;59.30;;;;;;6238139;28;20293;-77
2022/04/12 11:20:45;;;;;;;0.90;0.90;;;9.40;58.80;;;;;;6238832;28;20469;-77
2022/04/12 11:23:54;;;;;;;3.33;0.80;;;9.30;59.00;;;;;;6238563;28;20296;-77
2022/04/12 11:27:05;;;;;;;0.85;0.82;;;9.30;58.10;;;;;;6238949;28;20272;-76
2022/04/12 11:30:14;;;;;;;2.47;0.82;;;9.40;57.70;;;;;;6237858;28;20454;-76
2022/04/12 11:33:24;;;;;;;0.60;0.60;;;9.40;57.70;;;;;;6237177;28;20596;-77
2022/04/12 11:36:29;;;;;;;0.80;0.80;;;9.50;57.20;;;;;;6238636;28;20277;-77
2022/04/12 11:39:38;;;;;;;2.78;0.70;;;9.60;57.00;;;;;;6220330;28;20312;-75
2022/04/12 11:42:44;;;;;;;4.68;1.10;;;9.60;56.70;;;;;;6238078;28;20288;-76
2022/04/12 11:45:53;;;;;;;1.45;0.80;;;9.70;58.00;;;;;;6238290;28;20268;-76
2022/04/12 11:49:08;;;;;;;4.35;1.00;;;9.70;57.50;;;;;;6237707;28;20296;-74
2022/04/12 11:52:19;;;;;;;1.13;1.00;;;9.70;57.30;;;;;;6237527;28;20308;-75
2022/04/12 11:55:25;;;;;;;0.73;0.70;;;9.70;56.80;;;;;;6238185;28;20563;-76
2022/04/12 11:58:31;;;;;;;3.70;1.48;;;9.80;57.00;;;;;;6236346;28;20316;-79
2022/04/12 12:01:37;;;;;;;0.80;0.80;;;9.90;57.40;;;;;;6237901;28;20285;-78
2022/04/12 12:04:48;;;;;;;1.45;1.02;;;9.80;56.70;;;;;;6237419;28;20296;-78
2022/04/12 12:07:59;;;;;;;0.90;0.90;;;9.90;57.30;;;;;;6219907;28;20297;-79
2022/04/12 12:11:12;;;;;;;1.10;0.90;;;9.90;56.90;;;;;;6199723;28;20289;-78
2022/04/12 12:14:20;;;;;;;1.05;0.63;;;10.00;56.20;;;;;;6188798;28;20297;-78
2022/04/12 12:17:28;;;;;;;0.85;0.85;;;10.00;55.50;;;;;;6188748;28;20293;-79
2022/04/12 12:20:36;;;;;;;2.13;0.98;;;10.00;55.80;;;;;;6189135;28;20273;-78
2022/04/12 12:23:42;;;;;;;4.90;1.05;;;10.10;56.10;;;;;;6188767;28;20605;-78
2022/04/12 12:26:47;;;;;;;1.88;0.88;;;10.10;56.20;;;;;;6188682;28;20270;-78
2022/04/12 12:29:53;;;;;;;1.25;1.02;;;10.10;56.30;;;;;;6188609;28;20297;-79
2022/04/12 12:32:58;;;;;;;9.77;1.13;;;10.10;55.60;;;;;;6171144;28;20301;-80
2022/04/12 12:36:17;;;;;;;1.05;0.80;;;10.20;55.90;;;;;;6189183;28;20274;-80
2022/04/12 12:39:22;;;;;;;0.90;0.90;;;10.30;55.50;;;;;;6188438;28;20310;-80
2022/04/12 12:42:37;;;;;;;0.77;0.77;;;10.30;56.00;;;;;;6188453;28;20297;-79
2022/04/12 12:45:45;;;;;;;0.60;0.60;;;10.30;54.50;;;;;;6188679;28;20270;-80
2022/04/12 12:49:09;;;;;;;1.13;0.90;;;10.30;54.50;;;;;;6187936;28;20301;-80
2022/04/12 12:52:17;;;;;;;2.05;0.90;;;10.30;55.10;;;;;;6170792;28;20608;-78
2022/04/12 12:55:23;;;;;;;2.47;0.80;;;10.30;55.40;;;;;;6188059;28;20277;-80
2022/04/12 12:58:30;;;;;;;0.70;0.70;;;10.30;55.60;;;;;;6187857;28;20297;-80
2022/04/12 13:01:44;;;;;;;2.60;1.10;;;10.30;53.80;;;;;;6188376;28;20270;-79
2022/04/12 13:04:54;;;;;;;0.80;0.80;;;10.30;53.90;;;;;;6187461;28;20305;-79
2022/04/12 13:08:03;;;;;;;2.58;1.15;;;10.50;53.90;;;;;;6187955;28;20298;-79
2022/04/12 13:11:11;;;;;;;4.22;1.25;;;10.40;53.70;;;;;;6226445;28;20427;-80
2022/04/12 13:14:17;;;;;;;4.75;1.00;;;10.40;54.00;;;;;;6236152;28;20300;-79
2022/04/12 13:17:22;;;;;;;1.10;1.10;;;10.50;53.90;;;;;;6235806;28;20272;-78
2022/04/12 13:20:28;;;;;;;2.72;1.00;;;10.60;53.20;;;;;;6236952;28;20272;-77
2022/04/12 13:23:35;;;;;;;3.25;1.92;;;10.50;53.70;;;;;;6218807;28;20305;-78
2022/04/12 13:26:41;;;;;;;4.60;1.35;;;10.60;54.60;;;;;;6236777;28;20277;-79
2022/04/12 13:29:47;;;;;;;1.80;1.20;;;10.50;53.60;;;;;;6236119;28;20308;-78
2022/04/12 13:32:53;;;;;;;1.10;1.10;;;10.50;53.90;;;;;;6218880;28;20296;-78
2022/04/12 13:35:59;;;;;;;2.38;0.98;;;10.60;53.70;;;;;;6236609;28;20459;-79
2022/04/12 13:39:08;;;;;;;2.10;1.20;;;10.60;53.80;;;;;;6235850;28;20296;-78
2022/04/12 13:42:14;;;;;;;1.75;1.00;;;10.60;53.50;;;;;;6236019;28;20276;-78
2022/04/12 13:45:19;;;;;;;6.78;1.40;;;10.60;53.50;;;;;;6236300;28;20579;-78
2022/04/12 13:48:25;;;;;;;1.58;1.48;;;10.70;53.30;;;;;;6236084;28;20308;-79
2022/04/12 13:51:33;;;;;;;1.40;1.40;;;10.80;53.40;;;;;;6218916;28;20276;-79
2022/04/12 13:54:40;;;;;;;1.73;1.40;;;10.80;52.80;;;;;;6235710;28;20304;-79
2022/04/12 13:57:48;;;;;;;3.95;1.50;;;10.80;53.00;;;;;;6235503;28;20477;-78
2022/04/12 14:00:54;;;;;;;1.08;1.08;;;10.80;52.30;;;;;;6236414;28;20269;-79
2022/04/12 14:03:59;;;;;;;0.90;0.90;;;10.90;51.90;;;;;;6235496;28;20427;-78
2022/04/12 14:07:05;;;;;;;4.38;0.93;;;11.00;52.10;;;;;;6234969;28;20272;-80
2022/04/12 14:10:13;;;;;;;0.93;0.93;;;11.00;52.20;;;;;;6236400;28;20292;-79
2022/04/12 14:13:19;;;;;;;2.47;1.23;;;10.90;52.80;;;;;;6235449;28;20301;-78
2022/04/12 14:16:25;;;;;;;7.70;1.17;;;10.90;52.30;;;;;;6235663;28;20573;-78
2022/04/12 14:19:31;;;;;;;1.05;0.85;;;10.90;52.00;;;;;;6235203;28;20296;-79
2022/04/12 14:22:38;;;;;;;2.97;1.10;;;10.90;52.10;;;;;;6237933;28;20476;-77
2022/04/12 14:25:45;;;;;;;5.07;1.17;;;10.80;53.90;;;;;;6240600;28;20272;-79
2022/04/12 14:28:50;;;;;;;3.20;1.23;;;10.80;52.10;;;;;;6222797;28;20303;-78
2022/04/12 14:31:55;;;;;;;2.42;0.90;;;10.70;51.70;;;;;;6239837;28;20281;-80
2022/04/12 14:35:02;;;;;;;4.00;0.90;;;10.80;51.60;;;;;;6239738;28;20293;-78
2022/04/12 14:38:08;;;;;;;0.90;0.90;;;10.80;52.10;;;;;;6239843;28;20296;-78
2022/04/12 14:41:14;;;;;;;1.00;1.00;;;10.90;51.80;;;;;;6239502;28;20268;-76
2022/04/12 14:44:21;;;;;;;2.83;0.80;;;10.80;51.10;;;;;;6239036;28;20385;-76
2022/04/12 14:47:27;;;;;;;1.15;1.00;;;10.80;50.50;;;;;;6239149;28;20292;-77
2022/04/12 14:50:32;;;;;;;2.20;0.90;;;10.70;50.20;;;;;;6239890;28;20272;-77
2022/04/12 14:53:37;;;;;;;1.10;0.93;;;10.80;50.40;;;;;;6221214;28;20296;-78
2022/04/12 14:56:44;;;;;;;5.13;1.02;;;10.80;51.10;;;;;;6239192;28;20273;-78
2022/04/12 14:59:49;;;;;;;3.35;0.80;;;10.70;51.00;;;;;;6239008;28;20306;-78
2022/04/12 15:02:55;;;;;;;1.27;0.77;;;10.70;51.20;;;;;;6238535;28;20586;-78
2022/04/12 15:06:00;;;;;;;3.70;0.80;;;10.80;50.70;;;;;;6238047;28;20304;-78
2022/04/12 15:09:06;;;;;;;2.72;0.98;;;10.80;51.20;;;;;;6238802;28;20308;-78
2022/04/12 15:12:13;;;;;;;4.68;0.80;;;10.80;50.50;;;;;;6215818;28;20269;-77
2022/04/12 15:15:19;;;;;;;2.08;0.90;;;10.80;50.60;;;;;;6214921;28;20432;-77
2022/04/12 15:18:24;;;;;;;1.95;0.70;;;10.80;50.60;;;;;;6214309;28;20298;-77
2022/04/12 15:21:30;;;;;;;4.00;0.80;;;10.80;51.40;;;;;;6214880;28;20269;-77
2022/04/12 15:24:35;;;;;;;0.60;0.60;;;10.80;51.80;;;;;;6214239;28;20313;-79
2022/04/12 15:27:44;;;;;;;0.70;0.70;;;10.70;50.40;;;;;;6214476;28;20289;-77
2022/04/12 15:30:49;;;;;;;0.88;0.88;;;10.70;51.60;;;;;;6214579;28;20563;-76
2022/04/12 15:33:55;;;;;;;1.45;0.70;;;10.70;51.90;;;;;;6214052;28;20306;-76
2022/04/12 15:37:00;;;;;;;0.88;0.88;;;10.60;51.40;;;;;;6214759;28;20269;-79
2022/04/12 15:40:08;;;;;;;0.63;0.63;;;10.60;52.20;;;;;;6213541;28;20277;-78
2022/04/12 15:43:16;;;;;;;1.27;0.60;;;10.50;52.60;;;;;;6212520;28;20297;-76
2022/04/12 15:46:21;;;;;;;1.17;0.70;;;10.40;53.10;;;;;;6229107;28;20277;-79
2022/04/12 15:49:28;;;;;;;0.60;0.60;;;10.40;51.90;;;;;;6213869;28;20474;-78
2022/04/12 15:52:33;;;;;;;0.73;0.73;;;10.40;52.60;;;;;;6213819;28;20454;-76
2022/04/12 15:55:38;;;;;;;0.70;0.70;;;10.40;52.10;;;;;;6213889;28;20448;-76
2022/04/12 15:58:47;;;;;;;0.60;0.60;;;10.30;53.10;;;;;;6213530;28;20301;-77
2022/04/12 16:01:52;;;;;;;5.57;0.88;;;10.20;54.20;;;;;;6213579;28;20269;-77
2022/04/12 16:04:58;;;;;;;0.88;0.85;;;10.20;52.20;;;;;;6211681;28;20296;-76
2022/04/12 16:08:03;;;;;;;4.68;1.10;;;10.10;53.80;;;;;;6213426;28;20309;-76
2022/04/12 16:11:13;;;;;;;0.70;0.70;;;10.00;53.70;;;;;;6203505;28;20265;-76
2022/04/12 16:14:20;;;;;;;1.58;0.77;;;10.00;52.10;;;;;;6195521;28;20482;-76
2022/04/12 16:17:25;;;;;;;0.80;0.80;;;10.00;52.20;;;;;;6212670;28;20305;-80
2022/04/12 16:20:31;;;;;;;2.47;0.70;;;9.90;52.90;;;;;;6213654;28;20273;-78